sensor_id;sensor_type;location;lat;lon;timestamp;temperature;humidity
39919;DHT22;25589;51.552;13.424;2023-05-07T00:02:21;12.10;99.90
39919;DHT22;25589;51.552;13.424;2023-05-07T00:04:48;12.30;99.90
39919;DHT22;25589;51.552;13.424;2023-05-07T00:07:14;12.20;99.90
39919;DHT22;25589;51.552;13.424;2023-05-07T00:09:40;12.30;99.90
39919;DHT22;25589;51.552;13.424;2023-05-07T00:12:05;12.20;99.90
39919;DHT22;25589;51.552;13.424;2023-05-07T00:16:57;12.10;99.90
39919;DHT22;25589;51.552;13.424;2023-05-07T00:19:23;12.20;99.90
39919;DHT22;25589;51.552;13.424;2023-05-07T00:21:48;12.20;99.90
39919;DHT22;25589;51.552;13.424;2023-05-07T00:24:14;12.10;99.90
39919;DHT22;25589;51.552;13.424;2023-05-07T00:29:05;12.60;99.90
39919;DHT22;25589;51.552;13.424;2023-05-07T00:31:31;12.70;99.90
39919;DHT22;25589;51.552;13.424;2023-05-07T00:33:56;11.90;99.90
39919;DHT22;25589;51.552;13.424;2023-05-07T00:36:22;12.00;99.90
39919;DHT22;25589;51.552;13.424;2023-05-07T00:38:48;12.10;99.90
39919;DHT22;25589;51.552;13.424;2023-05-07T00:41:13;12.10;99.90
39919;DHT22;25589;51.552;13.424;2023-05-07T00:43:39;12.40;99.90
39919;DHT22;25589;51.552;13.424;2023-05-07T00:46:04;12.10;99.90
39919;DHT22;25589;51.552;13.424;2023-05-07T00:48:30;12.10;99.90
39919;DHT22;25589;51.552;13.424;2023-05-07T00:50:56;12.00;99.90
39919;DHT22;25589;51.552;13.424;2023-05-07T00:53:22;12.10;99.90
39919;DHT22;25589;51.552;13.424;2023-05-07T00:55:48;12.10;99.90
39919;DHT22;25589;51.552;13.424;2023-05-07T00:58:14;12.20;99.90
39919;DHT22;25589;51.552;13.424;2023-05-07T01:00:40;12.00;99.90
39919;DHT22;25589;51.552;13.424;2023-05-07T01:03:06;11.30;99.90
39919;DHT22;25589;51.552;13.424;2023-05-07T01:05:31;11.90;99.90
39919;DHT22;25589;51.552;13.424;2023-05-07T01:07:57;11.90;99.90
39919;DHT22;25589;51.552;13.424;2023-05-07T01:10:24;12.00;99.90
39919;DHT22;25589;51.552;13.424;2023-05-07T01:12:50;12.00;99.90
39919;DHT22;25589;51.552;13.424;2023-05-07T01:15:16;11.90;99.90
39919;DHT22;25589;51.552;13.424;2023-05-07T01:17:43;12.00;99.90
39919;DHT22;25589;51.552;13.424;2023-05-07T01:20:17;11.90;99.90
39919;DHT22;25589;51.552;13.424;2023-05-07T01:22:44;11.70;99.90
39919;DHT22;25589;51.552;13.424;2023-05-07T01:25:11;11.90;99.90
39919;DHT22;25589;51.552;13.424;2023-05-07T01:27:41;11.80;99.90
39919;DHT22;25589;51.552;13.424;2023-05-07T01:30:07;12.40;99.90
39919;DHT22;25589;51.552;13.424;2023-05-07T01:32:56;12.00;99.90
39919;DHT22;25589;51.552;13.424;2023-05-07T01:35:29;11.90;99.90
39919;DHT22;25589;51.552;13.424;2023-05-07T01:37:56;11.60;99.90
39919;DHT22;25589;51.552;13.424;2023-05-07T01:40:23;11.90;99.90
39919;DHT22;25589;51.552;13.424;2023-05-07T01:42:50;11.80;99.90
39919;DHT22;25589;51.552;13.424;2023-05-07T01:45:16;11.90;99.90
39919;DHT22;25589;51.552;13.424;2023-05-07T01:47:42;11.90;99.90
39919;DHT22;25589;51.552;13.424;2023-05-07T01:50:09;11.90;99.90
39919;DHT22;25589;51.552;13.424;2023-05-07T01:52:37;11.50;99.90
39919;DHT22;25589;51.552;13.424;2023-05-07T01:55:03;11.60;99.90
39919;DHT22;25589;51.552;13.424;2023-05-07T01:57:30;11.70;99.90
39919;DHT22;25589;51.552;13.424;2023-05-07T01:59:55;11.70;99.90
39919;DHT22;25589;51.552;13.424;2023-05-07T02:02:21;11.60;99.90
39919;DHT22;25589;51.552;13.424;2023-05-07T02:04:47;11.70;99.90
39919;DHT22;25589;51.552;13.424;2023-05-07T02:07:14;12.00;99.90
39919;DHT22;25589;51.552;13.424;2023-05-07T02:09:40;11.90;99.90
39919;DHT22;25589;51.552;13.424;2023-05-07T02:12:05;11.60;99.90
39919;DHT22;25589;51.552;13.424;2023-05-07T02:14:31;11.50;99.90
39919;DHT22;25589;51.552;13.424;2023-05-07T02:16:57;11.70;99.90
39919;DHT22;25589;51.552;13.424;2023-05-07T02:19:23;12.20;99.90
39919;DHT22;25589;51.552;13.424;2023-05-07T02:21:49;11.70;99.90
39919;DHT22;25589;51.552;13.424;2023-05-07T02:24:15;11.50;99.90
39919;DHT22;25589;51.552;13.424;2023-05-07T02:26:41;11.50;99.90
39919;DHT22;25589;51.552;13.424;2023-05-07T02:29:06;11.50;99.90
39919;DHT22;25589;51.552;13.424;2023-05-07T02:31:32;11.70;99.90
39919;DHT22;25589;51.552;13.424;2023-05-07T02:34:00;11.80;99.90
39919;DHT22;25589;51.552;13.424;2023-05-07T02:36:26;12.00;99.90
39919;DHT22;25589;51.552;13.424;2023-05-07T02:39:06;11.20;99.90
39919;DHT22;25589;51.552;13.424;2023-05-07T02:41:32;11.60;99.90
39919;DHT22;25589;51.552;13.424;2023-05-07T02:43:57;11.70;99.90
39919;DHT22;25589;51.552;13.424;2023-05-07T02:46:23;11.70;99.90
39919;DHT22;25589;51.552;13.424;2023-05-07T02:48:57;11.50;99.90
39919;DHT22;25589;51.552;13.424;2023-05-07T02:51:23;11.50;99.90
39919;DHT22;25589;51.552;13.424;2023-05-07T02:53:49;11.50;99.90
39919;DHT22;25589;51.552;13.424;2023-05-07T02:56:15;11.50;99.90
39919;DHT22;25589;51.552;13.424;2023-05-07T02:58:40;11.60;99.90
39919;DHT22;25589;51.552;13.424;2023-05-07T03:01:08;11.60;99.90
39919;DHT22;25589;51.552;13.424;2023-05-07T03:03:54;11.40;99.90
39919;DHT22;25589;51.552;13.424;2023-05-07T03:06:19;11.40;99.90
39919;DHT22;25589;51.552;13.424;2023-05-07T03:08:45;11.40;99.90
39919;DHT22;25589;51.552;13.424;2023-05-07T03:11:11;11.40;99.90
39919;DHT22;25589;51.552;13.424;2023-05-07T03:13:36;11.40;99.90
39919;DHT22;25589;51.552;13.424;2023-05-07T03:16:02;11.10;99.90
39919;DHT22;25589;51.552;13.424;2023-05-07T03:18:27;11.90;99.90
39919;DHT22;25589;51.552;13.424;2023-05-07T03:20:53;11.30;99.90
39919;DHT22;25589;51.552;13.424;2023-05-07T03:23:19;11.30;99.90
39919;DHT22;25589;51.552;13.424;2023-05-07T03:25:44;11.10;99.90
39919;DHT22;25589;51.552;13.424;2023-05-07T03:28:10;11.90;99.90
39919;DHT22;25589;51.552;13.424;2023-05-07T03:30:42;11.20;99.90
39919;DHT22;25589;51.552;13.424;2023-05-07T03:33:07;11.30;99.90
39919;DHT22;25589;51.552;13.424;2023-05-07T03:35:34;11.30;99.90
39919;DHT22;25589;51.552;13.424;2023-05-07T03:38:01;11.10;99.90
39919;DHT22;25589;51.552;13.424;2023-05-07T03:40:29;11.30;99.90
39919;DHT22;25589;51.552;13.424;2023-05-07T03:42:55;11.40;99.90
39919;DHT22;25589;51.552;13.424;2023-05-07T03:45:23;11.20;99.90
39919;DHT22;25589;51.552;13.424;2023-05-07T03:47:57;11.60;99.90
39919;DHT22;25589;51.552;13.424;2023-05-07T03:50:23;11.20;99.90
39919;DHT22;25589;51.552;13.424;2023-05-07T03:52:48;11.30;99.90
39919;DHT22;25589;51.552;13.424;2023-05-07T03:55:17;11.30;99.90
39919;DHT22;25589;51.552;13.424;2023-05-07T03:57:48;12.10;99.90
39919;DHT22;25589;51.552;13.424;2023-05-07T04:00:14;11.30;99.90
39919;DHT22;25589;51.552;13.424;2023-05-07T04:05:20;11.40;99.90
39919;DHT22;25589;51.552;13.424;2023-05-07T04:07:49;11.40;99.90
39919;DHT22;25589;51.552;13.424;2023-05-07T04:10:19;11.40;99.90
39919;DHT22;25589;51.552;13.424;2023-05-07T04:12:47;11.40;99.90
39919;DHT22;25589;51.552;13.424;2023-05-07T04:15:17;11.30;99.90
39919;DHT22;25589;51.552;13.424;2023-05-07T04:17:43;11.40;99.90
39919;DHT22;25589;51.552;13.424;2023-05-07T04:20:13;11.40;99.90
39919;DHT22;25589;51.552;13.424;2023-05-07T04:22:39;11.50;99.90
39919;DHT22;25589;51.552;13.424;2023-05-07T04:25:05;12.20;99.90
39919;DHT22;25589;51.552;13.424;2023-05-07T04:27:32;11.50;99.90
39919;DHT22;25589;51.552;13.424;2023-05-07T04:29:58;11.60;99.90
39919;DHT22;25589;51.552;13.424;2023-05-07T04:32:26;11.50;99.90
39919;DHT22;25589;51.552;13.424;2023-05-07T04:34:55;11.60;99.90
39919;DHT22;25589;51.552;13.424;2023-05-07T04:37:21;11.60;99.90
39919;DHT22;25589;51.552;13.424;2023-05-07T04:39:47;12.00;99.90
39919;DHT22;25589;51.552;13.424;2023-05-07T04:42:17;11.50;99.90
39919;DHT22;25589;51.552;13.424;2023-05-07T04:44:44;11.50;99.90
39919;DHT22;25589;51.552;13.424;2023-05-07T04:47:11;11.60;99.90
39919;DHT22;25589;51.552;13.424;2023-05-07T04:49:38;10.80;99.90
39919;DHT22;25589;51.552;13.424;2023-05-07T04:52:04;11.50;99.90
39919;DHT22;25589;51.552;13.424;2023-05-07T04:54:31;11.50;99.90
39919;DHT22;25589;51.552;13.424;2023-05-07T04:56:56;12.00;99.90
39919;DHT22;25589;51.552;13.424;2023-05-07T04:59:22;11.90;99.90
39919;DHT22;25589;51.552;13.424;2023-05-07T05:01:49;11.50;99.90
39919;DHT22;25589;51.552;13.424;2023-05-07T05:04:15;11.60;99.90
39919;DHT22;25589;51.552;13.424;2023-05-07T05:06:40;10.90;99.90
39919;DHT22;25589;51.552;13.424;2023-05-07T05:09:07;11.30;99.90
39919;DHT22;25589;51.552;13.424;2023-05-07T05:11:33;10.70;99.90
39919;DHT22;25589;51.552;13.424;2023-05-07T05:13:59;11.20;99.90
39919;DHT22;25589;51.552;13.424;2023-05-07T05:16:26;11.60;99.90
39919;DHT22;25589;51.552;13.424;2023-05-07T05:18:52;11.50;99.90
39919;DHT22;25589;51.552;13.424;2023-05-07T05:21:19;11.60;99.90
39919;DHT22;25589;51.552;13.424;2023-05-07T05:23:47;11.60;99.90
39919;DHT22;25589;51.552;13.424;2023-05-07T05:26:16;11.60;99.90
39919;DHT22;25589;51.552;13.424;2023-05-07T05:28:42;11.20;99.90
39919;DHT22;25589;51.552;13.424;2023-05-07T05:31:08;11.60;99.90
39919;DHT22;25589;51.552;13.424;2023-05-07T05:33:35;11.60;99.90
39919;DHT22;25589;51.552;13.424;2023-05-07T05:36:04;11.20;99.90
39919;DHT22;25589;51.552;13.424;2023-05-07T05:38:30;11.80;99.90
39919;DHT22;25589;51.552;13.424;2023-05-07T05:40:56;11.70;99.90
39919;DHT22;25589;51.552;13.424;2023-05-07T05:43:22;11.70;99.90
39919;DHT22;25589;51.552;13.424;2023-05-07T05:45:48;11.70;99.90
39919;DHT22;25589;51.552;13.424;2023-05-07T05:48:14;11.80;99.90
39919;DHT22;25589;51.552;13.424;2023-05-07T05:50:41;12.20;99.90
39919;DHT22;25589;51.552;13.424;2023-05-07T05:53:07;11.90;99.90
39919;DHT22;25589;51.552;13.424;2023-05-07T05:55:33;11.90;99.90
39919;DHT22;25589;51.552;13.424;2023-05-07T05:58:02;12.20;99.90
39919;DHT22;25589;51.552;13.424;2023-05-07T06:00:29;11.80;99.90
39919;DHT22;25589;51.552;13.424;2023-05-07T06:03:00;11.90;99.90
39919;DHT22;25589;51.552;13.424;2023-05-07T06:05:27;12.00;99.90
39919;DHT22;25589;51.552;13.424;2023-05-07T06:07:54;12.00;99.90
39919;DHT22;25589;51.552;13.424;2023-05-07T06:10:21;11.80;99.90
39919;DHT22;25589;51.552;13.424;2023-05-07T06:12:46;11.80;99.90
39919;DHT22;25589;51.552;13.424;2023-05-07T06:15:12;11.80;99.90
39919;DHT22;25589;51.552;13.424;2023-05-07T06:17:39;11.50;99.90
39919;DHT22;25589;51.552;13.424;2023-05-07T06:20:06;11.70;99.90
39919;DHT22;25589;51.552;13.424;2023-05-07T06:22:32;11.20;99.90
39919;DHT22;25589;51.552;13.424;2023-05-07T06:24:59;11.70;99.90
39919;DHT22;25589;51.552;13.424;2023-05-07T06:27:25;11.90;99.90
39919;DHT22;25589;51.552;13.424;2023-05-07T06:29:51;11.80;99.90
39919;DHT22;25589;51.552;13.424;2023-05-07T06:34:45;11.80;99.90
39919;DHT22;25589;51.552;13.424;2023-05-07T06:37:11;11.80;99.90
39919;DHT22;25589;51.552;13.424;2023-05-07T06:39:49;11.70;99.90
39919;DHT22;25589;51.552;13.424;2023-05-07T06:42:15;11.10;99.90
39919;DHT22;25589;51.552;13.424;2023-05-07T06:44:43;11.10;99.90
39919;DHT22;25589;51.552;13.424;2023-05-07T06:47:11;12.40;99.90
39919;DHT22;25589;51.552;13.424;2023-05-07T06:49:39;11.60;99.90
39919;DHT22;25589;51.552;13.424;2023-05-07T06:52:04;12.10;99.90
39919;DHT22;25589;51.552;13.424;2023-05-07T06:54:30;11.60;99.90
39919;DHT22;25589;51.552;13.424;2023-05-07T06:56:56;12.20;99.90
39919;DHT22;25589;51.552;13.424;2023-05-07T06:59:24;11.70;99.90
39919;DHT22;25589;51.552;13.424;2023-05-07T07:01:50;11.70;99.90
39919;DHT22;25589;51.552;13.424;2023-05-07T07:04:16;11.90;99.90
39919;DHT22;25589;51.552;13.424;2023-05-07T07:06:45;10.80;99.90
39919;DHT22;25589;51.552;13.424;2023-05-07T07:09:13;11.00;99.90
39919;DHT22;25589;51.552;13.424;2023-05-07T07:11:39;12.30;99.90
39919;DHT22;25589;51.552;13.424;2023-05-07T07:14:05;11.70;99.90
39919;DHT22;25589;51.552;13.424;2023-05-07T07:16:35;11.70;99.90
39919;DHT22;25589;51.552;13.424;2023-05-07T07:19:01;12.30;99.90
39919;DHT22;25589;51.552;13.424;2023-05-07T07:21:27;11.70;99.90
39919;DHT22;25589;51.552;13.424;2023-05-07T07:23:53;11.70;99.90
39919;DHT22;25589;51.552;13.424;2023-05-07T07:26:20;11.70;99.90
39919;DHT22;25589;51.552;13.424;2023-05-07T07:28:47;11.70;99.90
39919;DHT22;25589;51.552;13.424;2023-05-07T07:31:16;12.20;99.90
39919;DHT22;25589;51.552;13.424;2023-05-07T07:33:42;11.70;99.90
39919;DHT22;25589;51.552;13.424;2023-05-07T07:36:09;11.70;99.90
39919;DHT22;25589;51.552;13.424;2023-05-07T07:38:35;11.90;99.90
39919;DHT22;25589;51.552;13.424;2023-05-07T07:41:02;11.80;99.90
39919;DHT22;25589;51.552;13.424;2023-05-07T07:43:28;12.30;99.90
39919;DHT22;25589;51.552;13.424;2023-05-07T07:45:54;11.70;99.90
39919;DHT22;25589;51.552;13.424;2023-05-07T07:48:20;11.40;99.90
39919;DHT22;25589;51.552;13.424;2023-05-07T07:50:49;11.50;99.90
39919;DHT22;25589;51.552;13.424;2023-05-07T07:53:16;11.60;99.90
39919;DHT22;25589;51.552;13.424;2023-05-07T07:55:42;11.70;99.90
39919;DHT22;25589;51.552;13.424;2023-05-07T07:58:11;11.90;99.90
39919;DHT22;25589;51.552;13.424;2023-05-07T08:00:36;12.00;99.90
39919;DHT22;25589;51.552;13.424;2023-05-07T08:05:32;12.20;99.90
39919;DHT22;25589;51.552;13.424;2023-05-07T08:07:59;12.20;99.90
39919;DHT22;25589;51.552;13.424;2023-05-07T08:10:28;12.30;99.90
39919;DHT22;25589;51.552;13.424;2023-05-07T08:13:01;12.20;99.90
39919;DHT22;25589;51.552;13.424;2023-05-07T08:15:29;12.40;99.90
39919;DHT22;25589;51.552;13.424;2023-05-07T08:17:55;12.40;99.90
39919;DHT22;25589;51.552;13.424;2023-05-07T08:20:23;12.60;99.90
39919;DHT22;25589;51.552;13.424;2023-05-07T08:22:49;12.10;99.90
39919;DHT22;25589;51.552;13.424;2023-05-07T08:25:16;12.40;99.90
39919;DHT22;25589;51.552;13.424;2023-05-07T08:27:42;12.80;99.90
39919;DHT22;25589;51.552;13.424;2023-05-07T08:30:08;12.50;99.90
39919;DHT22;25589;51.552;13.424;2023-05-07T08:32:34;12.60;99.90
39919;DHT22;25589;51.552;13.424;2023-05-07T08:35:00;12.70;99.90
39919;DHT22;25589;51.552;13.424;2023-05-07T08:37:26;12.50;99.90
39919;DHT22;25589;51.552;13.424;2023-05-07T08:39:51;13.00;99.90
39919;DHT22;25589;51.552;13.424;2023-05-07T08:42:23;12.50;99.90
39919;DHT22;25589;51.552;13.424;2023-05-07T08:44:51;12.60;99.90
39919;DHT22;25589;51.552;13.424;2023-05-07T08:47:23;12.60;99.90
39919;DHT22;25589;51.552;13.424;2023-05-07T08:49:53;13.10;99.90
39919;DHT22;25589;51.552;13.424;2023-05-07T08:52:20;12.10;99.90
39919;DHT22;25589;51.552;13.424;2023-05-07T08:54:46;12.50;99.90
39919;DHT22;25589;51.552;13.424;2023-05-07T08:57:12;12.50;99.90
39919;DHT22;25589;51.552;13.424;2023-05-07T08:59:38;12.50;99.90
39919;DHT22;25589;51.552;13.424;2023-05-07T09:02:06;12.70;99.90
39919;DHT22;25589;51.552;13.424;2023-05-07T09:04:33;12.70;99.90
39919;DHT22;25589;51.552;13.424;2023-05-07T09:06:58;12.70;99.90
39919;DHT22;25589;51.552;13.424;2023-05-07T09:09:32;12.70;99.90
39919;DHT22;25589;51.552;13.424;2023-05-07T09:11:59;12.20;99.90
39919;DHT22;25589;51.552;13.424;2023-05-07T09:14:26;12.80;99.90
39919;DHT22;25589;51.552;13.424;2023-05-07T09:16:56;12.50;99.90
39919;DHT22;25589;51.552;13.424;2023-05-07T09:19:24;12.60;99.90
39919;DHT22;25589;51.552;13.424;2023-05-07T09:22:01;12.80;99.90
39919;DHT22;25589;51.552;13.424;2023-05-07T09:24:31;12.90;99.90
39919;DHT22;25589;51.552;13.424;2023-05-07T09:27:01;13.00;99.90
39919;DHT22;25589;51.552;13.424;2023-05-07T09:29:28;12.80;99.90
39919;DHT22;25589;51.552;13.424;2023-05-07T09:32:03;13.30;99.90
39919;DHT22;25589;51.552;13.424;2023-05-07T09:34:29;13.20;99.90
39919;DHT22;25589;51.552;13.424;2023-05-07T09:36:56;13.20;99.90
39919;DHT22;25589;51.552;13.424;2023-05-07T09:39:23;13.20;99.90
39919;DHT22;25589;51.552;13.424;2023-05-07T09:41:49;13.20;99.90
39919;DHT22;25589;51.552;13.424;2023-05-07T09:44:24;13.10;99.90
39919;DHT22;25589;51.552;13.424;2023-05-07T09:46:54;13.20;99.90
39919;DHT22;25589;51.552;13.424;2023-05-07T09:49:28;13.30;99.90
39919;DHT22;25589;51.552;13.424;2023-05-07T09:52:01;13.40;99.90
39919;DHT22;25589;51.552;13.424;2023-05-07T09:54:30;13.30;99.90
39919;DHT22;25589;51.552;13.424;2023-05-07T09:56:58;13.30;99.90
39919;DHT22;25589;51.552;13.424;2023-05-07T09:59:27;13.60;99.90
39919;DHT22;25589;51.552;13.424;2023-05-07T10:01:57;13.80;99.90
39919;DHT22;25589;51.552;13.424;2023-05-07T10:04:25;13.30;99.90
39919;DHT22;25589;51.552;13.424;2023-05-07T10:06:52;13.40;99.90
39919;DHT22;25589;51.552;13.424;2023-05-07T10:09:18;13.40;99.90
39919;DHT22;25589;51.552;13.424;2023-05-07T10:11:44;13.60;99.90
39919;DHT22;25589;51.552;13.424;2023-05-07T10:14:11;13.60;99.90
39919;DHT22;25589;51.552;13.424;2023-05-07T10:16:37;13.70;99.90
39919;DHT22;25589;51.552;13.424;2023-05-07T10:19:07;13.70;99.90
39919;DHT22;25589;51.552;13.424;2023-05-07T10:24:05;13.90;99.90
39919;DHT22;25589;51.552;13.424;2023-05-07T10:26:33;14.30;99.90
39919;DHT22;25589;51.552;13.424;2023-05-07T10:29:07;13.90;99.90
39919;DHT22;25589;51.552;13.424;2023-05-07T10:31:58;13.90;99.90
39919;DHT22;25589;51.552;13.424;2023-05-07T10:34:29;14.00;99.90
39919;DHT22;25589;51.552;13.424;2023-05-07T10:36:58;14.00;99.90
39919;DHT22;25589;51.552;13.424;2023-05-07T10:39:24;14.20;99.90
39919;DHT22;25589;51.552;13.424;2023-05-07T10:41:50;13.80;99.90
39919;DHT22;25589;51.552;13.424;2023-05-07T10:44:26;14.30;99.90
39919;DHT22;25589;51.552;13.424;2023-05-07T10:47:10;13.90;99.90
39919;DHT22;25589;51.552;13.424;2023-05-07T10:52:21;14.30;99.90
39919;DHT22;25589;51.552;13.424;2023-05-07T10:57:47;14.80;99.90
39919;DHT22;25589;51.552;13.424;2023-05-07T11:08:09;14.80;99.90
39919;DHT22;25589;51.552;13.424;2023-05-07T11:13:41;14.40;99.90
39919;DHT22;25589;51.552;13.424;2023-05-07T11:16:21;14.50;99.90
39919;DHT22;25589;51.552;13.424;2023-05-07T11:18:55;14.50;99.90
39919;DHT22;25589;51.552;13.424;2023-05-07T11:21:35;14.40;99.90
39919;DHT22;25589;51.552;13.424;2023-05-07T11:24:26;14.40;99.90
39919;DHT22;25589;51.552;13.424;2023-05-07T11:26:56;14.50;99.90
39919;DHT22;25589;51.552;13.424;2023-05-07T11:29:23;15.40;99.90
39919;DHT22;25589;51.552;13.424;2023-05-07T11:31:55;14.60;99.90
39919;DHT22;25589;51.552;13.424;2023-05-07T11:34:25;14.20;99.90
39919;DHT22;25589;51.552;13.424;2023-05-07T11:36:53;14.80;99.90
39919;DHT22;25589;51.552;13.424;2023-05-07T11:39:29;15.00;99.90
39919;DHT22;25589;51.552;13.424;2023-05-07T11:41:56;15.30;99.90
39919;DHT22;25589;51.552;13.424;2023-05-07T11:44:22;15.40;99.90
39919;DHT22;25589;51.552;13.424;2023-05-07T11:49:14;15.70;99.90
39919;DHT22;25589;51.552;13.424;2023-05-07T11:51:41;16.00;99.90
39919;DHT22;25589;51.552;13.424;2023-05-07T11:54:08;15.90;99.90
39919;DHT22;25589;51.552;13.424;2023-05-07T11:56:37;15.40;99.90
39919;DHT22;25589;51.552;13.424;2023-05-07T11:59:07;15.40;99.90
39919;DHT22;25589;51.552;13.424;2023-05-07T12:01:35;15.40;99.90
39919;DHT22;25589;51.552;13.424;2023-05-07T12:04:03;15.40;99.90
39919;DHT22;25589;51.552;13.424;2023-05-07T12:06:29;15.30;99.90
39919;DHT22;25589;51.552;13.424;2023-05-07T12:08:55;15.50;99.90
39919;DHT22;25589;51.552;13.424;2023-05-07T12:11:25;15.40;99.90
39919;DHT22;25589;51.552;13.424;2023-05-07T12:13:51;15.50;99.90
39919;DHT22;25589;51.552;13.424;2023-05-07T12:16:17;15.50;99.90
39919;DHT22;25589;51.552;13.424;2023-05-07T12:18:44;15.50;99.90
39919;DHT22;25589;51.552;13.424;2023-05-07T12:21:09;15.40;99.90
39919;DHT22;25589;51.552;13.424;2023-05-07T12:23:37;15.40;99.90
39919;DHT22;25589;51.552;13.424;2023-05-07T12:26:03;15.50;99.90
39919;DHT22;25589;51.552;13.424;2023-05-07T12:28:37;15.20;99.90
39919;DHT22;25589;51.552;13.424;2023-05-07T12:31:04;15.10;99.90
39919;DHT22;25589;51.552;13.424;2023-05-07T12:33:30;15.00;99.90
39919;DHT22;25589;51.552;13.424;2023-05-07T12:35:58;15.10;99.90
39919;DHT22;25589;51.552;13.424;2023-05-07T12:38:24;15.20;99.90
39919;DHT22;25589;51.552;13.424;2023-05-07T12:40:53;15.30;99.90
39919;DHT22;25589;51.552;13.424;2023-05-07T12:43:27;15.20;99.90
39919;DHT22;25589;51.552;13.424;2023-05-07T12:45:55;15.30;99.90
39919;DHT22;25589;51.552;13.424;2023-05-07T12:48:21;15.40;99.90
39919;DHT22;25589;51.552;13.424;2023-05-07T12:50:51;15.40;99.90
39919;DHT22;25589;51.552;13.424;2023-05-07T12:53:19;15.50;99.90
39919;DHT22;25589;51.552;13.424;2023-05-07T12:55:47;15.40;99.90
39919;DHT22;25589;51.552;13.424;2023-05-07T12:58:17;15.20;99.90
39919;DHT22;25589;51.552;13.424;2023-05-07T13:00:44;15.00;99.90
39919;DHT22;25589;51.552;13.424;2023-05-07T13:03:11;15.30;99.90
39919;DHT22;25589;51.552;13.424;2023-05-07T13:05:37;15.20;99.90
39919;DHT22;25589;51.552;13.424;2023-05-07T13:08:02;15.10;99.90
39919;DHT22;25589;51.552;13.424;2023-05-07T13:10:28;14.80;99.90
39919;DHT22;25589;51.552;13.424;2023-05-07T13:12:54;15.20;99.90
39919;DHT22;25589;51.552;13.424;2023-05-07T13:15:20;15.20;99.90
39919;DHT22;25589;51.552;13.424;2023-05-07T13:17:46;15.20;99.90
39919;DHT22;25589;51.552;13.424;2023-05-07T13:20:12;15.30;99.90
39919;DHT22;25589;51.552;13.424;2023-05-07T13:22:38;15.40;99.90
39919;DHT22;25589;51.552;13.424;2023-05-07T13:25:05;15.50;99.90
39919;DHT22;25589;51.552;13.424;2023-05-07T13:27:31;15.50;99.90
39919;DHT22;25589;51.552;13.424;2023-05-07T13:29:57;15.40;99.90
39919;DHT22;25589;51.552;13.424;2023-05-07T13:32:23;15.30;99.90
39919;DHT22;25589;51.552;13.424;2023-05-07T13:34:48;14.80;99.90
39919;DHT22;25589;51.552;13.424;2023-05-07T13:37:14;15.10;99.90
39919;DHT22;25589;51.552;13.424;2023-05-07T13:39:39;15.10;99.90
39919;DHT22;25589;51.552;13.424;2023-05-07T13:42:06;15.00;99.90
39919;DHT22;25589;51.552;13.424;2023-05-07T13:44:32;14.90;99.90
39919;DHT22;25589;51.552;13.424;2023-05-07T13:46:57;14.60;99.90
39919;DHT22;25589;51.552;13.424;2023-05-07T13:49:23;15.00;99.90
39919;DHT22;25589;51.552;13.424;2023-05-07T13:51:49;14.80;99.90
39919;DHT22;25589;51.552;13.424;2023-05-07T13:54:14;15.10;99.90
39919;DHT22;25589;51.552;13.424;2023-05-07T13:56:41;15.00;99.90
39919;DHT22;25589;51.552;13.424;2023-05-07T13:59:07;15.10;99.90
39919;DHT22;25589;51.552;13.424;2023-05-07T14:01:32;15.10;99.90
39919;DHT22;25589;51.552;13.424;2023-05-07T14:03:58;15.10;99.90
39919;DHT22;25589;51.552;13.424;2023-05-07T14:06:25;15.00;99.90
39919;DHT22;25589;51.552;13.424;2023-05-07T14:08:50;15.10;99.90
39919;DHT22;25589;51.552;13.424;2023-05-07T14:11:16;15.00;99.90
39919;DHT22;25589;51.552;13.424;2023-05-07T14:13:41;15.00;99.90
39919;DHT22;25589;51.552;13.424;2023-05-07T14:16:07;14.90;99.90
39919;DHT22;25589;51.552;13.424;2023-05-07T14:18:33;15.00;99.90
39919;DHT22;25589;51.552;13.424;2023-05-07T14:20:59;15.30;99.90
39919;DHT22;25589;51.552;13.424;2023-05-07T14:23:25;15.30;99.90
39919;DHT22;25589;51.552;13.424;2023-05-07T14:25:54;15.10;99.90
39919;DHT22;25589;51.552;13.424;2023-05-07T14:28:21;15.40;99.90
39919;DHT22;25589;51.552;13.424;2023-05-07T14:30:47;14.80;99.90
39919;DHT22;25589;51.552;13.424;2023-05-07T14:33:13;14.90;99.90
39919;DHT22;25589;51.552;13.424;2023-05-07T14:35:39;15.00;99.90
39919;DHT22;25589;51.552;13.424;2023-05-07T14:38:04;15.00;99.90
39919;DHT22;25589;51.552;13.424;2023-05-07T14:40:30;15.00;99.90
39919;DHT22;25589;51.552;13.424;2023-05-07T14:45:22;14.80;99.90
39919;DHT22;25589;51.552;13.424;2023-05-07T14:47:48;15.00;99.90
39919;DHT22;25589;51.552;13.424;2023-05-07T14:50:13;15.10;99.90
39919;DHT22;25589;51.552;13.424;2023-05-07T14:52:39;15.40;99.90
39919;DHT22;25589;51.552;13.424;2023-05-07T14:55:05;15.30;99.90
39919;DHT22;25589;51.552;13.424;2023-05-07T14:57:31;15.40;99.90
39919;DHT22;25589;51.552;13.424;2023-05-07T15:00:01;15.70;99.90
39919;DHT22;25589;51.552;13.424;2023-05-07T15:02:26;15.80;99.90
39919;DHT22;25589;51.552;13.424;2023-05-07T15:04:52;15.90;99.90
39919;DHT22;25589;51.552;13.424;2023-05-07T15:07:18;16.20;99.90
39919;DHT22;25589;51.552;13.424;2023-05-07T15:09:44;15.60;99.90
39919;DHT22;25589;51.552;13.424;2023-05-07T15:12:10;15.90;99.90
39919;DHT22;25589;51.552;13.424;2023-05-07T15:14:36;15.70;99.90
39919;DHT22;25589;51.552;13.424;2023-05-07T15:17:02;14.80;99.90
39919;DHT22;25589;51.552;13.424;2023-05-07T15:19:27;15.10;99.90
39919;DHT22;25589;51.552;13.424;2023-05-07T15:21:56;15.20;99.90
39919;DHT22;25589;51.552;13.424;2023-05-07T15:24:23;15.20;99.90
39919;DHT22;25589;51.552;13.424;2023-05-07T15:26:48;15.50;99.90
39919;DHT22;25589;51.552;13.424;2023-05-07T15:29:14;15.20;99.90
39919;DHT22;25589;51.552;13.424;2023-05-07T15:31:40;15.40;99.90
39919;DHT22;25589;51.552;13.424;2023-05-07T15:34:06;15.30;99.90
39919;DHT22;25589;51.552;13.424;2023-05-07T15:36:31;15.40;99.90
39919;DHT22;25589;51.552;13.424;2023-05-07T15:38:57;15.90;99.90
39919;DHT22;25589;51.552;13.424;2023-05-07T15:41:22;15.50;99.90
39919;DHT22;25589;51.552;13.424;2023-05-07T15:43:50;15.40;99.90
39919;DHT22;25589;51.552;13.424;2023-05-07T15:46:21;15.30;99.90
39919;DHT22;25589;51.552;13.424;2023-05-07T15:48:47;15.30;99.90
39919;DHT22;25589;51.552;13.424;2023-05-07T15:51:13;15.30;99.90
39919;DHT22;25589;51.552;13.424;2023-05-07T15:53:38;15.10;99.90